Nearby METAR Reports

 

KCOS - Colorado Springs, Colorado, USA
Distance from station: S 6mi, 9km
Updated: 04/26/2018 5:54am
Mostly cloudy
Mostly cloudy
 Wind from NW
Wind: NW 28 mph , 44 km/h, Gust: 41 mph , 67 km/h
Temperature: 45°F , 7°C
Wind Chill: 36°F , 2°C
Dew Point: 25°F , -4°C
Humidity: 46%
Barometer: 30.16 inHg , 1021.3 hPa
Clouds: Mostly cloudy
Visibility: 10 miles , 16 km
Cloud details: Few Clouds 7000 ft
Partly cloudy 17000 ft
Mostly cloudy 20000 ft
2018/04/26 11:54 KCOS 261154Z 31024G36KT 10SM FEW070 SCT170 BKN200 07/M04 A3016 RMK AO2 PK WND 32037/1055 SLP173 PRESRR T00721039 10094 20017 53037
KAFF - Usaf Academy/Cos, Colorado, USA
Distance from station: NW 7mi, 12km
Updated: 04/26/2018 5:58am
Clear
Clear
 Wind from NNW
Wind: NNW 21 mph , 33 km/h, Gust: 31 mph , 50 km/h
Temperature: 41°F , 5°C
Wind Chill: 32°F , 0°C
Dew Point: 23°F , -5°C
Humidity: 49%
Barometer: 30.17 inHg , 1021.7 hPa
Clouds: Clear
Visibility: 10 miles , 16 km
2018/04/26 11:58 KAFF 261158Z AUTO 34018G27KT 10SM CLR 05/M05 A3017 RMK AO2 PK WND 28029/37 SLP172 T00541047 10071 21005 52038
 
KFLY - Co Spngs Meadow, Colorado, USA
Distance from station: ENE 8mi, 13km
Updated: 04/26/2018 6:55am
Clear
Clear
 Wind from N
Wind: N 23 mph , 37 km/h, Gust: 32 mph , 52 km/h
Temperature: 39°F , 4°C
Wind Chill: 28°F , -2°C
Dew Point: 23°F , -5°C
Humidity: 52%
Barometer: 30.20 inHg , 1022.7 hPa
Clouds: Clear
Visibility: 10 miles , 16 km
2018/04/26 12:55 KFLY 261255Z AUTO 35020G28KT 10SM CLR 04/M05 A3020 RMK AO2 T00411055
KFCS - Fort Carson, Colorado, USA
Distance from station: S 17mi, 27km
Updated: 04/26/2018 5:58am
Partly cloudy
Partly cloudy
 Wind from NNW
Wind: NNW 39 mph , 63 km/h, Gust: 51 mph , 81 km/h
Temperature: 48°F , 9°C
Wind Chill: 38°F , 3°C
Dew Point: 23°F , -5°C
Humidity: 37%
Barometer: 30.09 inHg , 1019 hPa
Clouds: Partly cloudy
Visibility: 10 miles , 16 km
Cloud details: Partly cloudy 19000 ft
2018/04/26 11:58 KFCS 261158Z AUTO 34034G44KT 10SM SCT190 09/M05 A3009 RMK AO2 PK WND 33048/15 SLP167 T00871048 10093 20033 52028 $
 
KMNH - Monument/Elbert, Colorado, USA
Distance from station: N 22mi, 35km
Updated: 04/26/2018 6:53am
Partly cloudy
Partly cloudy
 Wind from N
Wind: N 15 mph , 24 km/h, Gust: 25 mph , 41 km/h
Temperature: 36°F , 2°C
Wind Chill: 27°F , -3°C
Dew Point: 27°F , -3°C
Humidity: 70%
Barometer: 30.25 inHg , 1024.4 hPa
Clouds: Partly cloudy
Visibility: 10 miles , 16 km
Cloud details: Partly cloudy 6500 ft
2018/04/26 12:53 KMNH 261253Z AUTO 35013G22KT 10SM SCT065 02/M03 A3025 RMK AO2
K1V6 - Canon City, Colorado, USA
Distance from station: SSW 39mi, 62km
Updated: 04/26/2018 6:50am
Clear
Clear
 Wind from NW
Wind: NW 10 mph , 17 km/h
Temperature: 46°F , 8°C
Wind Chill: 41°F , 5°C
Dew Point: 28°F , -2°C
Humidity: 50%
Barometer: 30.11 inHg , 1019.6 hPa
Clouds: Clear
Visibility: 10 miles , 16 km
2018/04/26 12:50 K1V6 261250Z AUTO 31009KT 10SM CLR 08/M02 A3011 RMK AO2
 
KPUB - Pueblo, Colorado, USA
Distance from station: SSE 44mi, 71km
Updated: 04/26/2018 6:53am
Clear
Clear
 Wind from N
Wind: N 32 mph , 52 km/h, Gust: 49 mph , 80 km/h
Temperature: 52°F , 11°C
Dew Point: 27°F , -3°C
Humidity: 38%
Barometer: 30.10 inHg , 1019.3 hPa
Clouds: Clear
Visibility: 10 miles , 16 km
2018/04/26 12:53 KPUB 261253Z 01028G43KT 10SM CLR 11/M03 A3010 RMK AO2 PK WND 01047/1220 PRESRR SLP157 T01111028
KAPA - Denver/Arapahoe, Colorado, USA
Distance from station: N 47mi, 75km
Updated: 04/26/2018 6:53am
Mostly cloudy
Mostly cloudy
 Wind from NNE
Wind: NNE 13 mph , 20 km/h
Temperature: 45°F , 7°C
Wind Chill: 39°F , 4°C
Dew Point: 28°F , -2°C
Humidity: 53%
Barometer: 30.22 inHg , 1023.4 hPa
Clouds: Mostly cloudy
Visibility: 10 miles , 16 km
Cloud details: Mostly cloudy 9500 ft
Mostly cloudy 11000 ft
2018/04/26 12:53 KAPA 261253Z 02011KT 10SM BKN095 BKN110 07/M02 A3022 RMK AO2 SLP204 T00671022